sensor_id;sensor_type;location;lat;lon;timestamp;temperature;humidity
5621;DHT22;2832;50.864;12.186;2023-05-29T00:02:01;19.40;91.20
5621;DHT22;2832;50.864;12.186;2023-05-29T00:04:29;19.40;91.10
5621;DHT22;2832;50.864;12.186;2023-05-29T00:06:59;19.40;91.10
5621;DHT22;2832;50.864;12.186;2023-05-29T00:09:27;19.40;91.10
5621;DHT22;2832;50.864;12.186;2023-05-29T00:11:56;19.30;91.10
5621;DHT22;2832;50.864;12.186;2023-05-29T00:14:27;19.30;91.20
5621;DHT22;2832;50.864;12.186;2023-05-29T00:16:55;19.30;91.20
5621;DHT22;2832;50.864;12.186;2023-05-29T00:19:23;19.30;91.20
5621;DHT22;2832;50.864;12.186;2023-05-29T00:21:51;19.30;91.20
5621;DHT22;2832;50.864;12.186;2023-05-29T00:24:20;19.20;91.20
5621;DHT22;2832;50.864;12.186;2023-05-29T00:26:48;19.20;91.20
5621;DHT22;2832;50.864;12.186;2023-05-29T00:29:15;19.20;91.20
5621;DHT22;2832;50.864;12.186;2023-05-29T00:31:47;19.20;91.20
5621;DHT22;2832;50.864;12.186;2023-05-29T00:34:15;19.20;91.30
5621;DHT22;2832;50.864;12.186;2023-05-29T00:36:43;19.20;91.20
5621;DHT22;2832;50.864;12.186;2023-05-29T00:39:11;19.20;91.20
5621;DHT22;2832;50.864;12.186;2023-05-29T00:41:42;19.20;91.20
5621;DHT22;2832;50.864;12.186;2023-05-29T00:44:10;19.20;91.20
5621;DHT22;2832;50.864;12.186;2023-05-29T00:46:37;19.10;91.20
5621;DHT22;2832;50.864;12.186;2023-05-29T00:49:05;19.10;91.30
5621;DHT22;2832;50.864;12.186;2023-05-29T00:51:34;19.10;91.30
5621;DHT22;2832;50.864;12.186;2023-05-29T00:54:04;19.10;91.30
5621;DHT22;2832;50.864;12.186;2023-05-29T00:56:34;19.10;91.30
5621;DHT22;2832;50.864;12.186;2023-05-29T00:59:03;19.00;91.30
5621;DHT22;2832;50.864;12.186;2023-05-29T01:01:32;19.00;91.30
5621;DHT22;2832;50.864;12.186;2023-05-29T01:04:01;19.00;91.30
5621;DHT22;2832;50.864;12.186;2023-05-29T01:06:36;19.00;91.30
5621;DHT22;2832;50.864;12.186;2023-05-29T01:09:04;19.00;91.40
5621;DHT22;2832;50.864;12.186;2023-05-29T01:11:40;19.00;91.30
5621;DHT22;2832;50.864;12.186;2023-05-29T01:14:17;18.90;91.30
5621;DHT22;2832;50.864;12.186;2023-05-29T01:16:59;18.90;91.30
5621;DHT22;2832;50.864;12.186;2023-05-29T01:19:50;18.80;91.30
5621;DHT22;2832;50.864;12.186;2023-05-29T01:22:37;18.80;91.30
5621;DHT22;2832;50.864;12.186;2023-05-29T01:25:14;18.80;91.30
5621;DHT22;2832;50.864;12.186;2023-05-29T01:27:51;18.80;91.30
5621;DHT22;2832;50.864;12.186;2023-05-29T01:30:20;18.80;91.30
5621;DHT22;2832;50.864;12.186;2023-05-29T01:32:50;18.70;91.20
5621;DHT22;2832;50.864;12.186;2023-05-29T01:35:19;18.70;91.20
5621;DHT22;2832;50.864;12.186;2023-05-29T01:37:46;18.70;91.10
5621;DHT22;2832;50.864;12.186;2023-05-29T01:40:16;18.70;91.20
5621;DHT22;2832;50.864;12.186;2023-05-29T01:42:44;18.70;91.20
5621;DHT22;2832;50.864;12.186;2023-05-29T01:45:14;18.70;91.20
5621;DHT22;2832;50.864;12.186;2023-05-29T01:47:45;18.70;91.20
5621;DHT22;2832;50.864;12.186;2023-05-29T01:50:18;18.70;91.20
5621;DHT22;2832;50.864;12.186;2023-05-29T01:52:47;18.70;91.20
5621;DHT22;2832;50.864;12.186;2023-05-29T01:55:20;18.70;91.20
5621;DHT22;2832;50.864;12.186;2023-05-29T01:57:49;18.70;91.00
5621;DHT22;2832;50.864;12.186;2023-05-29T02:00:22;18.60;91.00
5621;DHT22;2832;50.864;12.186;2023-05-29T02:02:50;18.60;91.00
5621;DHT22;2832;50.864;12.186;2023-05-29T02:05:18;18.50;90.90
5621;DHT22;2832;50.864;12.186;2023-05-29T02:07:46;18.50;91.00
5621;DHT22;2832;50.864;12.186;2023-05-29T02:10:14;18.50;91.00
5621;DHT22;2832;50.864;12.186;2023-05-29T02:12:42;18.40;91.00
5621;DHT22;2832;50.864;12.186;2023-05-29T02:15:10;18.40;91.10
5621;DHT22;2832;50.864;12.186;2023-05-29T02:17:39;18.40;91.10
5621;DHT22;2832;50.864;12.186;2023-05-29T02:20:09;18.40;91.10
5621;DHT22;2832;50.864;12.186;2023-05-29T02:22:37;18.40;91.10
5621;DHT22;2832;50.864;12.186;2023-05-29T02:25:08;18.40;91.10
5621;DHT22;2832;50.864;12.186;2023-05-29T02:27:36;18.40;91.10
5621;DHT22;2832;50.864;12.186;2023-05-29T02:30:06;18.40;91.10
5621;DHT22;2832;50.864;12.186;2023-05-29T02:32:34;18.40;91.10
5621;DHT22;2832;50.864;12.186;2023-05-29T02:35:07;18.40;91.00
5621;DHT22;2832;50.864;12.186;2023-05-29T02:37:35;18.40;91.00
5621;DHT22;2832;50.864;12.186;2023-05-29T02:40:04;18.30;90.90
5621;DHT22;2832;50.864;12.186;2023-05-29T02:42:38;18.30;91.00
5621;DHT22;2832;50.864;12.186;2023-05-29T02:45:08;18.30;91.00
5621;DHT22;2832;50.864;12.186;2023-05-29T02:47:36;18.20;91.00
5621;DHT22;2832;50.864;12.186;2023-05-29T02:50:08;18.30;91.00
5621;DHT22;2832;50.864;12.186;2023-05-29T02:52:36;18.20;90.90
5621;DHT22;2832;50.864;12.186;2023-05-29T02:55:04;18.20;90.90
5621;DHT22;2832;50.864;12.186;2023-05-29T02:57:38;18.20;90.90
5621;DHT22;2832;50.864;12.186;2023-05-29T03:00:07;18.10;90.90
5621;DHT22;2832;50.864;12.186;2023-05-29T03:02:42;18.10;90.90
5621;DHT22;2832;50.864;12.186;2023-05-29T03:05:11;18.00;90.90
5621;DHT22;2832;50.864;12.186;2023-05-29T03:07:39;18.00;90.90
5621;DHT22;2832;50.864;12.186;2023-05-29T03:10:10;18.00;91.00
5621;DHT22;2832;50.864;12.186;2023-05-29T03:12:44;18.00;91.00
5621;DHT22;2832;50.864;12.186;2023-05-29T03:15:12;18.00;91.00
5621;DHT22;2832;50.864;12.186;2023-05-29T03:17:40;18.00;91.00
5621;DHT22;2832;50.864;12.186;2023-05-29T03:20:11;18.00;90.90
5621;DHT22;2832;50.864;12.186;2023-05-29T03:22:40;17.90;90.90
5621;DHT22;2832;50.864;12.186;2023-05-29T03:25:08;17.90;90.90
5621;DHT22;2832;50.864;12.186;2023-05-29T03:27:36;17.90;90.90
5621;DHT22;2832;50.864;12.186;2023-05-29T03:30:06;17.90;90.80
5621;DHT22;2832;50.864;12.186;2023-05-29T03:32:37;17.80;90.80
5621;DHT22;2832;50.864;12.186;2023-05-29T03:35:05;17.90;90.90
5621;DHT22;2832;50.864;12.186;2023-05-29T03:37:35;17.80;90.90
5621;DHT22;2832;50.864;12.186;2023-05-29T03:40:04;17.80;90.90
5621;DHT22;2832;50.864;12.186;2023-05-29T03:42:32;17.80;90.90
5621;DHT22;2832;50.864;12.186;2023-05-29T03:44:59;17.80;90.90
5621;DHT22;2832;50.864;12.186;2023-05-29T03:47:29;17.80;90.90
5621;DHT22;2832;50.864;12.186;2023-05-29T03:50:00;17.80;90.90
5621;DHT22;2832;50.864;12.186;2023-05-29T03:52:34;17.70;90.90
5621;DHT22;2832;50.864;12.186;2023-05-29T03:55:02;17.70;90.90
5621;DHT22;2832;50.864;12.186;2023-05-29T03:57:32;17.70;90.90
5621;DHT22;2832;50.864;12.186;2023-05-29T04:00:02;17.70;91.00
5621;DHT22;2832;50.864;12.186;2023-05-29T04:02:31;17.60;91.00
5621;DHT22;2832;50.864;12.186;2023-05-29T04:05:00;17.70;91.10
5621;DHT22;2832;50.864;12.186;2023-05-29T04:07:27;17.70;91.00
5621;DHT22;2832;50.864;12.186;2023-05-29T04:09:57;17.80;91.10
5621;DHT22;2832;50.864;12.186;2023-05-29T04:12:25;17.80;91.10
5621;DHT22;2832;50.864;12.186;2023-05-29T04:14:53;17.80;91.10
5621;DHT22;2832;50.864;12.186;2023-05-29T04:17:22;17.70;91.20
5621;DHT22;2832;50.864;12.186;2023-05-29T04:19:50;17.70;91.20
5621;DHT22;2832;50.864;12.186;2023-05-29T04:22:18;17.70;91.20
5621;DHT22;2832;50.864;12.186;2023-05-29T04:24:47;17.70;91.30
5621;DHT22;2832;50.864;12.186;2023-05-29T04:27:17;17.70;91.30
5621;DHT22;2832;50.864;12.186;2023-05-29T04:29:45;17.70;91.40
5621;DHT22;2832;50.864;12.186;2023-05-29T04:32:13;17.60;91.30
5621;DHT22;2832;50.864;12.186;2023-05-29T04:34:41;17.70;91.30
5621;DHT22;2832;50.864;12.186;2023-05-29T04:37:10;17.70;91.30
5621;DHT22;2832;50.864;12.186;2023-05-29T04:39:41;17.70;91.30
5621;DHT22;2832;50.864;12.186;2023-05-29T04:42:09;17.70;91.30
5621;DHT22;2832;50.864;12.186;2023-05-29T04:44:44;17.70;91.40
5621;DHT22;2832;50.864;12.186;2023-05-29T04:47:13;17.70;91.40
5621;DHT22;2832;50.864;12.186;2023-05-29T04:49:45;17.80;91.40
5621;DHT22;2832;50.864;12.186;2023-05-29T04:52:17;17.80;91.50
5621;DHT22;2832;50.864;12.186;2023-05-29T04:54:50;17.70;91.40
5621;DHT22;2832;50.864;12.186;2023-05-29T04:57:21;17.70;91.50
5621;DHT22;2832;50.864;12.186;2023-05-29T04:59:52;17.80;91.60
5621;DHT22;2832;50.864;12.186;2023-05-29T05:02:22;17.70;91.60
5621;DHT22;2832;50.864;12.186;2023-05-29T05:04:50;17.70;91.80
5621;DHT22;2832;50.864;12.186;2023-05-29T05:07:17;17.70;91.80
5621;DHT22;2832;50.864;12.186;2023-05-29T05:09:47;17.70;91.90
5621;DHT22;2832;50.864;12.186;2023-05-29T05:12:15;17.60;91.90
5621;DHT22;2832;50.864;12.186;2023-05-29T05:14:43;17.70;92.00
5621;DHT22;2832;50.864;12.186;2023-05-29T05:17:13;17.70;92.00
5621;DHT22;2832;50.864;12.186;2023-05-29T05:19:42;17.70;92.10
5621;DHT22;2832;50.864;12.186;2023-05-29T05:22:11;17.70;92.10
5621;DHT22;2832;50.864;12.186;2023-05-29T05:24:41;17.70;92.20
5621;DHT22;2832;50.864;12.186;2023-05-29T05:27:10;17.70;92.30
5621;DHT22;2832;50.864;12.186;2023-05-29T05:29:38;17.80;92.40
5621;DHT22;2832;50.864;12.186;2023-05-29T05:32:09;17.80;92.30
5621;DHT22;2832;50.864;12.186;2023-05-29T05:34:39;17.80;92.30
5621;DHT22;2832;50.864;12.186;2023-05-29T05:37:07;17.80;92.30
5621;DHT22;2832;50.864;12.186;2023-05-29T05:39:36;17.90;92.40
5621;DHT22;2832;50.864;12.186;2023-05-29T05:42:05;17.90;92.50
5621;DHT22;2832;50.864;12.186;2023-05-29T05:44:33;17.90;92.40
5621;DHT22;2832;50.864;12.186;2023-05-29T05:47:07;17.90;92.50
5621;DHT22;2832;50.864;12.186;2023-05-29T05:49:36;17.90;92.60
5621;DHT22;2832;50.864;12.186;2023-05-29T05:52:11;17.90;92.70
5621;DHT22;2832;50.864;12.186;2023-05-29T05:54:46;17.90;92.80
5621;DHT22;2832;50.864;12.186;2023-05-29T05:57:18;17.90;92.90
5621;DHT22;2832;50.864;12.186;2023-05-29T05:59:46;17.90;92.90
5621;DHT22;2832;50.864;12.186;2023-05-29T06:02:24;17.90;93.00
5621;DHT22;2832;50.864;12.186;2023-05-29T06:04:57;17.90;92.90
5621;DHT22;2832;50.864;12.186;2023-05-29T06:07:29;17.90;93.00
5621;DHT22;2832;50.864;12.186;2023-05-29T06:10:01;18.00;93.40
5621;DHT22;2832;50.864;12.186;2023-05-29T06:12:37;18.00;93.20
5621;DHT22;2832;50.864;12.186;2023-05-29T06:15:06;18.00;93.20
5621;DHT22;2832;50.864;12.186;2023-05-29T06:17:35;18.00;93.20
5621;DHT22;2832;50.864;12.186;2023-05-29T06:20:04;18.00;93.20
5621;DHT22;2832;50.864;12.186;2023-05-29T06:22:39;18.00;93.20
5621;DHT22;2832;50.864;12.186;2023-05-29T06:25:08;18.10;93.30
5621;DHT22;2832;50.864;12.186;2023-05-29T06:27:37;18.10;93.30
5621;DHT22;2832;50.864;12.186;2023-05-29T06:30:15;18.10;93.40
5621;DHT22;2832;50.864;12.186;2023-05-29T06:32:47;18.10;93.50
5621;DHT22;2832;50.864;12.186;2023-05-29T06:35:17;18.10;93.50
5621;DHT22;2832;50.864;12.186;2023-05-29T06:37:53;18.10;93.50
5621;DHT22;2832;50.864;12.186;2023-05-29T06:40:22;18.20;93.50
5621;DHT22;2832;50.864;12.186;2023-05-29T06:42:51;18.20;93.60
5621;DHT22;2832;50.864;12.186;2023-05-29T06:45:19;18.20;93.60
5621;DHT22;2832;50.864;12.186;2023-05-29T06:47:47;18.20;93.60
5621;DHT22;2832;50.864;12.186;2023-05-29T06:50:16;18.20;93.70
5621;DHT22;2832;50.864;12.186;2023-05-29T06:52:45;18.20;93.80
5621;DHT22;2832;50.864;12.186;2023-05-29T06:55:19;18.20;93.70
5621;DHT22;2832;50.864;12.186;2023-05-29T06:57:53;18.20;93.80
5621;DHT22;2832;50.864;12.186;2023-05-29T07:00:28;18.20;93.80
5621;DHT22;2832;50.864;12.186;2023-05-29T07:02:56;18.20;94.40
5621;DHT22;2832;50.864;12.186;2023-05-29T07:05:26;18.00;94.50
5621;DHT22;2832;50.864;12.186;2023-05-29T07:07:54;17.90;94.70
5621;DHT22;2832;50.864;12.186;2023-05-29T07:10:29;17.90;95.10
5621;DHT22;2832;50.864;12.186;2023-05-29T07:12:59;17.80;95.50
5621;DHT22;2832;50.864;12.186;2023-05-29T07:15:33;17.60;95.70
5621;DHT22;2832;50.864;12.186;2023-05-29T07:18:05;17.50;96.30
5621;DHT22;2832;50.864;12.186;2023-05-29T07:20:33;17.40;96.50
5621;DHT22;2832;50.864;12.186;2023-05-29T07:23:02;17.10;96.90
5621;DHT22;2832;50.864;12.186;2023-05-29T07:25:41;17.00;97.20
5621;DHT22;2832;50.864;12.186;2023-05-29T07:28:12;17.10;97.00
5621;DHT22;2832;50.864;12.186;2023-05-29T07:30:45;17.20;97.40
5621;DHT22;2832;50.864;12.186;2023-05-29T07:33:14;17.20;96.70
5621;DHT22;2832;50.864;12.186;2023-05-29T07:35:42;17.30;97.00
5621;DHT22;2832;50.864;12.186;2023-05-29T07:38:10;17.40;97.10
5621;DHT22;2832;50.864;12.186;2023-05-29T07:40:39;17.40;97.10
5621;DHT22;2832;50.864;12.186;2023-05-29T07:43:07;17.40;97.10
5621;DHT22;2832;50.864;12.186;2023-05-29T07:45:38;17.50;97.10
5621;DHT22;2832;50.864;12.186;2023-05-29T07:48:11;17.50;97.00
5621;DHT22;2832;50.864;12.186;2023-05-29T07:50:42;17.50;97.10
5621;DHT22;2832;50.864;12.186;2023-05-29T07:53:11;17.50;96.80
5621;DHT22;2832;50.864;12.186;2023-05-29T07:55:49;17.50;96.70
5621;DHT22;2832;50.864;12.186;2023-05-29T07:58:33;17.60;96.30
5621;DHT22;2832;50.864;12.186;2023-05-29T08:01:12;17.70;96.20
5621;DHT22;2832;50.864;12.186;2023-05-29T08:03:43;17.80;96.80
5621;DHT22;2832;50.864;12.186;2023-05-29T08:06:13;17.80;96.90
5621;DHT22;2832;50.864;12.186;2023-05-29T08:08:45;17.80;96.60
5621;DHT22;2832;50.864;12.186;2023-05-29T08:11:28;17.80;96.20
5621;DHT22;2832;50.864;12.186;2023-05-29T08:14:05;17.90;95.90
5621;DHT22;2832;50.864;12.186;2023-05-29T08:16:41;18.00;96.50
5621;DHT22;2832;50.864;12.186;2023-05-29T08:19:16;18.00;96.20
5621;DHT22;2832;50.864;12.186;2023-05-29T08:21:51;18.10;95.90
5621;DHT22;2832;50.864;12.186;2023-05-29T08:24:19;18.20;95.80
5621;DHT22;2832;50.864;12.186;2023-05-29T08:26:50;18.30;95.80
5621;DHT22;2832;50.864;12.186;2023-05-29T08:29:29;18.30;95.80
5621;DHT22;2832;50.864;12.186;2023-05-29T08:32:05;18.40;96.60
5621;DHT22;2832;50.864;12.186;2023-05-29T08:34:50;18.40;96.40
5621;DHT22;2832;50.864;12.186;2023-05-29T08:38:01;18.50;96.10
5621;DHT22;2832;50.864;12.186;2023-05-29T08:40:37;18.50;96.50
5621;DHT22;2832;50.864;12.186;2023-05-29T08:43:23;18.50;96.10
5621;DHT22;2832;50.864;12.186;2023-05-29T08:45:54;18.50;96.20
5621;DHT22;2832;50.864;12.186;2023-05-29T08:48:26;18.50;96.30
5621;DHT22;2832;50.864;12.186;2023-05-29T08:50:58;18.30;96.50
5621;DHT22;2832;50.864;12.186;2023-05-29T08:53:47;18.10;96.60
5621;DHT22;2832;50.864;12.186;2023-05-29T08:56:24;18.00;96.90
5621;DHT22;2832;50.864;12.186;2023-05-29T08:58:55;18.00;96.80
5621;DHT22;2832;50.864;12.186;2023-05-29T09:01:33;17.90;96.70
5621;DHT22;2832;50.864;12.186;2023-05-29T09:04:10;17.90;96.50
5621;DHT22;2832;50.864;12.186;2023-05-29T09:06:54;17.90;96.60
5621;DHT22;2832;50.864;12.186;2023-05-29T09:09:41;18.00;95.80
5621;DHT22;2832;50.864;12.186;2023-05-29T09:12:28;18.00;96.20
5621;DHT22;2832;50.864;12.186;2023-05-29T09:15:18;18.10;95.90
5621;DHT22;2832;50.864;12.186;2023-05-29T09:17:58;18.20;95.20
5621;DHT22;2832;50.864;12.186;2023-05-29T09:20:39;18.10;95.30
5621;DHT22;2832;50.864;12.186;2023-05-29T09:23:09;18.10;95.90
5621;DHT22;2832;50.864;12.186;2023-05-29T09:25:41;18.20;95.80
5621;DHT22;2832;50.864;12.186;2023-05-29T09:28:22;18.30;95.90
5621;DHT22;2832;50.864;12.186;2023-05-29T09:30:59;18.30;95.50
5621;DHT22;2832;50.864;12.186;2023-05-29T09:33:29;18.30;95.70
5621;DHT22;2832;50.864;12.186;2023-05-29T09:35:59;18.40;95.10
5621;DHT22;2832;50.864;12.186;2023-05-29T09:38:31;18.50;94.90
5621;DHT22;2832;50.864;12.186;2023-05-29T09:41:13;18.50;94.90
5621;DHT22;2832;50.864;12.186;2023-05-29T09:44:00;18.50;95.10
5621;DHT22;2832;50.864;12.186;2023-05-29T09:46:40;18.60;95.50
5621;DHT22;2832;50.864;12.186;2023-05-29T09:49:14;18.60;95.20
5621;DHT22;2832;50.864;12.186;2023-05-29T09:51:54;18.70;94.60
5621;DHT22;2832;50.864;12.186;2023-05-29T09:58:04;18.70;94.90
5621;DHT22;2832;50.864;12.186;2023-05-29T10:01:03;18.70;94.80
5621;DHT22;2832;50.864;12.186;2023-05-29T10:03:57;18.80;94.90
5621;DHT22;2832;50.864;12.186;2023-05-29T10:06:37;18.90;94.70
5621;DHT22;2832;50.864;12.186;2023-05-29T10:09:17;18.90;94.90
5621;DHT22;2832;50.864;12.186;2023-05-29T10:11:53;19.10;94.80
5621;DHT22;2832;50.864;12.186;2023-05-29T10:14:44;19.10;94.20
5621;DHT22;2832;50.864;12.186;2023-05-29T10:17:31;19.10;94.40
5621;DHT22;2832;50.864;12.186;2023-05-29T10:20:06;19.00;94.30
5621;DHT22;2832;50.864;12.186;2023-05-29T10:23:05;19.10;94.40
5621;DHT22;2832;50.864;12.186;2023-05-29T10:25:45;19.10;92.20
5621;DHT22;2832;50.864;12.186;2023-05-29T10:28:24;19.10;93.40
5621;DHT22;2832;50.864;12.186;2023-05-29T10:31:07;19.10;93.60
5621;DHT22;2832;50.864;12.186;2023-05-29T10:33:54;19.20;92.90
5621;DHT22;2832;50.864;12.186;2023-05-29T10:36:54;19.20;92.60
5621;DHT22;2832;50.864;12.186;2023-05-29T10:39:26;19.30;93.80
5621;DHT22;2832;50.864;12.186;2023-05-29T10:41:59;19.40;92.00
5621;DHT22;2832;50.864;12.186;2023-05-29T10:44:40;19.40;88.90
5621;DHT22;2832;50.864;12.186;2023-05-29T10:47:10;19.40;88.40
5621;DHT22;2832;50.864;12.186;2023-05-29T10:50:00;19.40;90.70
5621;DHT22;2832;50.864;12.186;2023-05-29T10:52:47;19.40;89.80
5621;DHT22;2832;50.864;12.186;2023-05-29T10:55:34;19.50;90.60
5621;DHT22;2832;50.864;12.186;2023-05-29T10:58:06;19.50;89.20
5621;DHT22;2832;50.864;12.186;2023-05-29T11:00:35;19.50;90.10
5621;DHT22;2832;50.864;12.186;2023-05-29T11:03:09;19.50;88.60
5621;DHT22;2832;50.864;12.186;2023-05-29T11:05:57;19.60;85.10
5621;DHT22;2832;50.864;12.186;2023-05-29T11:08:33;19.50;85.30
5621;DHT22;2832;50.864;12.186;2023-05-29T11:15:06;19.70;86.00
5621;DHT22;2832;50.864;12.186;2023-05-29T11:17:48;19.70;83.80
5621;DHT22;2832;50.864;12.186;2023-05-29T11:20:52;19.70;82.40
5621;DHT22;2832;50.864;12.186;2023-05-29T11:23:34;19.80;86.40
5621;DHT22;2832;50.864;12.186;2023-05-29T11:26:11;19.70;85.80
5621;DHT22;2832;50.864;12.186;2023-05-29T11:28:51;19.80;87.10
5621;DHT22;2832;50.864;12.186;2023-05-29T11:31:22;20.00;85.10
5621;DHT22;2832;50.864;12.186;2023-05-29T11:34:21;20.00;86.10
5621;DHT22;2832;50.864;12.186;2023-05-29T11:37:06;20.00;86.60
5621;DHT22;2832;50.864;12.186;2023-05-29T11:39:43;20.10;88.30
5621;DHT22;2832;50.864;12.186;2023-05-29T11:42:16;20.10;87.80
5621;DHT22;2832;50.864;12.186;2023-05-29T11:44:53;20.20;87.20
5621;DHT22;2832;50.864;12.186;2023-05-29T11:47:26;20.20;87.60
5621;DHT22;2832;50.864;12.186;2023-05-29T11:50:02;20.20;86.70
5621;DHT22;2832;50.864;12.186;2023-05-29T11:52:55;20.20;85.80
5621;DHT22;2832;50.864;12.186;2023-05-29T11:55:47;20.20;84.20
5621;DHT22;2832;50.864;12.186;2023-05-29T11:58:45;20.30;82.80
5621;DHT22;2832;50.864;12.186;2023-05-29T12:01:26;20.30;83.40
5621;DHT22;2832;50.864;12.186;2023-05-29T12:04:01;20.30;83.80
5621;DHT22;2832;50.864;12.186;2023-05-29T12:06:35;20.40;83.70
5621;DHT22;2832;50.864;12.186;2023-05-29T12:09:23;20.60;84.10
5621;DHT22;2832;50.864;12.186;2023-05-29T12:12:09;20.60;84.70
5621;DHT22;2832;50.864;12.186;2023-05-29T12:14:51;20.50;84.90
5621;DHT22;2832;50.864;12.186;2023-05-29T12:24:58;20.60;86.40
5621;DHT22;2832;50.864;12.186;2023-05-29T12:28:26;20.60;86.10
5621;DHT22;2832;50.864;12.186;2023-05-29T12:31:27;20.50;83.60
5621;DHT22;2832;50.864;12.186;2023-05-29T12:34:08;20.40;84.30
5621;DHT22;2832;50.864;12.186;2023-05-29T12:36:40;20.60;84.10
5621;DHT22;2832;50.864;12.186;2023-05-29T12:39:19;20.60;85.20
5621;DHT22;2832;50.864;12.186;2023-05-29T12:42:01;20.60;84.10
5621;DHT22;2832;50.864;12.186;2023-05-29T12:44:48;20.60;84.10
5621;DHT22;2832;50.864;12.186;2023-05-29T12:47:29;20.70;83.90
5621;DHT22;2832;50.864;12.186;2023-05-29T12:50:25;20.70;83.90
5621;DHT22;2832;50.864;12.186;2023-05-29T12:52:59;20.70;84.00
5621;DHT22;2832;50.864;12.186;2023-05-29T12:55:28;20.80;82.00
5621;DHT22;2832;50.864;12.186;2023-05-29T12:57:59;21.00;82.90
5621;DHT22;2832;50.864;12.186;2023-05-29T13:00:45;21.00;83.90
5621;DHT22;2832;50.864;12.186;2023-05-29T13:03:46;20.90;84.50
5621;DHT22;2832;50.864;12.186;2023-05-29T13:06:26;20.80;82.20
5621;DHT22;2832;50.864;12.186;2023-05-29T13:09:09;20.60;82.80
5621;DHT22;2832;50.864;12.186;2023-05-29T13:12:48;20.60;83.50
5621;DHT22;2832;50.864;12.186;2023-05-29T13:22:22;20.90;85.60
5621;DHT22;2832;50.864;12.186;2023-05-29T13:25:02;21.00;85.50
5621;DHT22;2832;50.864;12.186;2023-05-29T13:27:45;20.90;85.90
5621;DHT22;2832;50.864;12.186;2023-05-29T13:30:51;20.70;85.60
5621;DHT22;2832;50.864;12.186;2023-05-29T13:33:27;20.70;85.60
5621;DHT22;2832;50.864;12.186;2023-05-29T13:36:13;20.60;85.00
5621;DHT22;2832;50.864;12.186;2023-05-29T13:39:02;20.70;85.80
5621;DHT22;2832;50.864;12.186;2023-05-29T13:41:34;20.60;86.70
5621;DHT22;2832;50.864;12.186;2023-05-29T13:44:14;20.60;86.70
5621;DHT22;2832;50.864;12.186;2023-05-29T13:46:48;20.70;87.00
5621;DHT22;2832;50.864;12.186;2023-05-29T13:49:18;20.90;85.70
5621;DHT22;2832;50.864;12.186;2023-05-29T13:51:50;21.00;84.80
5621;DHT22;2832;50.864;12.186;2023-05-29T13:54:31;21.10;85.10
5621;DHT22;2832;50.864;12.186;2023-05-29T13:57:10;21.10;85.20
5621;DHT22;2832;50.864;12.186;2023-05-29T13:59:50;21.00;86.10
5621;DHT22;2832;50.864;12.186;2023-05-29T14:02:59;20.90;87.30
5621;DHT22;2832;50.864;12.186;2023-05-29T14:08:59;20.80;88.00
5621;DHT22;2832;50.864;12.186;2023-05-29T14:11:48;20.90;88.50
5621;DHT22;2832;50.864;12.186;2023-05-29T14:14:39;20.80;88.20
5621;DHT22;2832;50.864;12.186;2023-05-29T14:17:13;20.70;88.30
5621;DHT22;2832;50.864;12.186;2023-05-29T14:19:47;20.70;88.00
5621;DHT22;2832;50.864;12.186;2023-05-29T14:22:30;20.80;86.10
5621;DHT22;2832;50.864;12.186;2023-05-29T14:25:17;20.70;87.30
5621;DHT22;2832;50.864;12.186;2023-05-29T14:27:55;20.70;87.50
5621;DHT22;2832;50.864;12.186;2023-05-29T14:30:35;20.80;88.00
5621;DHT22;2832;50.864;12.186;2023-05-29T14:33:17;20.90;88.40
5621;DHT22;2832;50.864;12.186;2023-05-29T14:37:17;20.80;87.30
5621;DHT22;2832;50.864;12.186;2023-05-29T14:43:17;21.10;86.60
5621;DHT22;2832;50.864;12.186;2023-05-29T14:46:18;21.00;85.50
5621;DHT22;2832;50.864;12.186;2023-05-29T14:49:10;21.00;85.20
5621;DHT22;2832;50.864;12.186;2023-05-29T14:52:03;21.00;85.00
5621;DHT22;2832;50.864;12.186;2023-05-29T14:54:41;21.00;85.40
5621;DHT22;2832;50.864;12.186;2023-05-29T14:57:17;21.00;85.40
5621;DHT22;2832;50.864;12.186;2023-05-29T15:00:06;21.10;84.20
5621;DHT22;2832;50.864;12.186;2023-05-29T15:02:45;21.10;84.30
5621;DHT22;2832;50.864;12.186;2023-05-29T15:05:26;21.10;84.10
5621;DHT22;2832;50.864;12.186;2023-05-29T15:08:44;21.00;84.50
5621;DHT22;2832;50.864;12.186;2023-05-29T15:11:34;21.10;86.30
5621;DHT22;2832;50.864;12.186;2023-05-29T15:14:25;21.20;86.10
5621;DHT22;2832;50.864;12.186;2023-05-29T15:17:18;21.10;86.40
5621;DHT22;2832;50.864;12.186;2023-05-29T15:19:48;21.10;86.10
5621;DHT22;2832;50.864;12.186;2023-05-29T15:22:24;21.00;86.40
5621;DHT22;2832;50.864;12.186;2023-05-29T15:25:26;21.10;85.20
5621;DHT22;2832;50.864;12.186;2023-05-29T15:28:19;21.10;85.80
5621;DHT22;2832;50.864;12.186;2023-05-29T15:31:13;21.10;83.50
5621;DHT22;2832;50.864;12.186;2023-05-29T15:33:47;21.10;83.00
5621;DHT22;2832;50.864;12.186;2023-05-29T15:36:21;21.10;83.70
5621;DHT22;2832;50.864;12.186;2023-05-29T15:38:52;21.10;84.30
5621;DHT22;2832;50.864;12.186;2023-05-29T15:41:23;21.10;82.90
5621;DHT22;2832;50.864;12.186;2023-05-29T15:44:03;21.10;83.00
5621;DHT22;2832;50.864;12.186;2023-05-29T15:46:45;21.10;82.80
5621;DHT22;2832;50.864;12.186;2023-05-29T15:49:23;21.10;82.30
5621;DHT22;2832;50.864;12.186;2023-05-29T15:51:55;21.10;81.70
5621;DHT22;2832;50.864;12.186;2023-05-29T15:54:44;21.00;81.80
5621;DHT22;2832;50.864;12.186;2023-05-29T15:57:16;21.10;82.80
5621;DHT22;2832;50.864;12.186;2023-05-29T16:03:31;21.10;83.30
5621;DHT22;2832;50.864;12.186;2023-05-29T16:09:33;21.20;83.70
5621;DHT22;2832;50.864;12.186;2023-05-29T16:12:08;21.20;83.80
5621;DHT22;2832;50.864;12.186;2023-05-29T16:14:45;21.30;85.70
5621;DHT22;2832;50.864;12.186;2023-05-29T16:17:22;21.30;85.90
5621;DHT22;2832;50.864;12.186;2023-05-29T16:19:55;21.30;85.30
5621;DHT22;2832;50.864;12.186;2023-05-29T16:22:30;21.40;86.60
5621;DHT22;2832;50.864;12.186;2023-05-29T16:25:12;21.40;87.20
5621;DHT22;2832;50.864;12.186;2023-05-29T16:28:08;21.40;86.30
5621;DHT22;2832;50.864;12.186;2023-05-29T16:30:51;21.30;86.80
5621;DHT22;2832;50.864;12.186;2023-05-29T16:33:29;21.40;86.80
5621;DHT22;2832;50.864;12.186;2023-05-29T16:36:15;21.30;86.30
5621;DHT22;2832;50.864;12.186;2023-05-29T16:38:48;21.40;86.20
5621;DHT22;2832;50.864;12.186;2023-05-29T16:41:21;21.40;86.10
5621;DHT22;2832;50.864;12.186;2023-05-29T16:44:18;21.40;85.90
5621;DHT22;2832;50.864;12.186;2023-05-29T16:47:05;21.50;85.80
5621;DHT22;2832;50.864;12.186;2023-05-29T16:49:53;21.50;86.70
5621;DHT22;2832;50.864;12.186;2023-05-29T16:52:28;21.40;86.20
5621;DHT22;2832;50.864;12.186;2023-05-29T16:58:08;21.30;86.60
5621;DHT22;2832;50.864;12.186;2023-05-29T17:00:52;21.20;86.90
5621;DHT22;2832;50.864;12.186;2023-05-29T17:03:23;21.20;87.20
5621;DHT22;2832;50.864;12.186;2023-05-29T17:05:57;21.20;87.10
5621;DHT22;2832;50.864;12.186;2023-05-29T17:08:43;21.20;87.50
5621;DHT22;2832;50.864;12.186;2023-05-29T17:11:25;21.20;87.60
5621;DHT22;2832;50.864;12.186;2023-05-29T17:14:05;21.20;88.10
5621;DHT22;2832;50.864;12.186;2023-05-29T17:17:16;21.20;87.90
5621;DHT22;2832;50.864;12.186;2023-05-29T17:20:21;21.20;87.70
5621;DHT22;2832;50.864;12.186;2023-05-29T17:23:02;21.10;88.60